This site, now in its 15th season, is a labour of love and fun from one of Ottawa's most avid time trialists and number crunchers. It adheres to and is permitted by the laws of Canada, promotes the objectives of every bicycle club whose results are shown, and is donated free of charge by myself for your enjoyment and usage. If you would like results from series you ride in to be shown here, give me (celia@drmath.ca) a shout!


Index Page
ATT OTT WTT AATT CFCTT VVVTT
Help resultformat:
Case-sensitive

OBC Open TT Series - 1993-May-06 - 15km (Rockliffe Pkwy) (EvtFactor = 0.8509)

Weather (18:00): Mainly Clear. Temp.: 16.2C, Humidity: 56%, DewPoint: 7.4C, Wind: NNW 28km/h, Pressure: 100.31kPa, Visibility: 32.2km.
Weather (19:00): Mainly Clear. Temp.: 15.2C, Humidity: 60%, DewPoint: 7.5C, Wind: NNW 26km/h, Pressure: 100.37kPa, Visibility: 32.2km.
Weather (20:00): Clear. Temp.: 13.9C, Humidity: 61%, DewPoint: 6.4C, Wind: NNW 13km/h, Pressure: 100.44kPa, Visibility: 32.2km.

Send photos with description (when/where/what) of yourself on or off of bike to celia@drmath.ca

 
 

BESTS?
 
1 Redding, Neil OBC 20:36 43.689 1/69 OVAM 1/17 1.0171
2 Georgas, Chris OBC 21:28 41.925 2/69 OVBM 1/11 1.0140
3 Young, James OBC 21:36 41.667 3/69 OSEM 1/28  
4 Bisson, Pascal OBC 21:46 41.348 4/69 OSEM 2/28 1.0997
5 Sweeney, Sean --- 22:00 40.909 5/69 OSEM 3/28  
6 Statchuk, Craig OBC 22:05 40.755 6/69 OVAM 2/17 0.9731
7 Thompson, Grant OBC 22:11 40.571 7/69 OSEM 4/28 1.2983
8 Hamilton, Peter OBC 22:17 40.389 8/69 OSEM 5/28 1.2730
9 Moore, Mike --- 22:23 40.208 9/69 OSEM 6/28 1.0247
10 Aller, Brian OBC 22:24 40.179 10/69 OVAM 3/17  
11 St-Amour, Pierre OBC 22:27 40.089 11/69 OVAM 4/17 0.9432
12 Bachman, Paul --- 22:34 39.882 12/69 OSEM 7/28 0.9650
13 Greenberg, Mike OBC 22:36 39.823 13/69 OSEM 8/28  
Moerman, Bram  OBC 22:36 39.823 13/69 OVBM 2/11 0.9672
15 Fairhead, Denis OBC 22:42 39.648 15/69 OVAM 5/17 0.9567
16 Buffa, Alex  OBC 22:44 39.589 16/69 OSEM 9/28 1.0221
17 McHugh, Craig --- 22:58 39.187 17/69 OSEM 10/28 0.9508
18 Reinisch, Stephen OBC 22:59 39.159 18/69 OSEM 11/28 0.9763
19 Morvan, Jacques  OBC 23:00 39.130 19/69 OVBM 3/11  
20 Martignago, Mike OBC 23:05 38.989 20/69 OSEM 12/28 1.2908
21 Odermatt, Daniel OBC 23:06 38.961 21/69 OSEM 13/28  
22 Budd, Daniel OBC 23:11 38.821 22/69 OSEM 14/28 1.0261
23 MacDonald, Ryan OBC 23:12 38.793 23/69 OSEM 15/28 0.8742
24 Atkins, Brent --- 23:20 38.571 24/69 OSEM 16/28  
25 Leach, Mike --- 23:25 38.434 25/69 OSEM 17/28  
26 Campbell, Colin  OBC 23:27 38.380 26/69 OSEM 18/28 0.9071
27 Bowring, John --- 23:29 38.325 27/69 OJUM 1/3 1.1707
28 Pomeroy, Steve OBC 23:43 37.948 28/69 OVAM 6/17 0.9564
29 Barton, Ron OBC 23:47 37.842 29/69 OVAM 7/17 0.9064
Palamar, David --- 23:47 37.842 29/69 OSEM 19/28  
31 Atkinson, John OBC 23:51 37.736 31/69 OVAM 8/17  
32 Montpetit, Stephane OBC 23:58 37.552 32/69 OSEM 20/28 0.9347
33 Georgekish-Watt, Yanik --- 23:59 37.526 33/69 OJUM 2/3 0.9169
34 Tamborine, Don OBC 24:01 37.474 34/69 OVBM 4/11  
35 O'Blenes, Paul OBC 24:14 37.139 35/69 OSEM 21/28  
36 Paulin, Pierre OBC 24:16 37.088 36/69 OSEM 22/28 1.0041
37 Vermander, Eric OBC 24:17 37.062 37/69 OSEM 23/28 0.9414
38 Heffler, Paul OBC 24:30 36.735 38/69 OSEM 24/28 2.7482
39 Le Grand, Gregory OBC 24:32 36.685 39/69 OVBM 5/11 1.4840
40 Bachman, Mike --- 24:34 36.635 40/69 OVBM 6/11 0.9131
41 Williams, Peter OBC 24:39 36.511 41/69 OSEM 25/28  
42 Gilchrist, Ryan  OBC 24:48 36.290 42/69 OSEM 26/28 0.9859
43 Brown, Dave OBC 24:50 36.242 43/69 OSEM 27/28  
44 Shadeed, Charles OBC 24:53 36.169 44/69 OVAM 9/17  
45 Stewart, Rob --- 25:10 35.762 45/69 OVAM 10/17  
46 Alfano, Nick OBC 25:12 35.714 46/69 OVAM 11/17  
47 Berthelet, David OBC 25:21 35.503 47/69 OVBM 7/11  
48 Arts, Michael OBC 25:27 35.363 48/69 OCAM 1/2 0.6242
49 Hartry, Corey --- 25:31 35.271 49/69 OCAM 2/2 0.9961
50 McInnis, Celia  OBC 25:38 35.111 50/69 OVAF 1/1 0.9558
51 Polischuk, Susan --- 25:44 34.974 51/69 OSEF 1/3 0.9317
52 Vasku, Herb OBC 25:51 34.816 52/69 OVBM 8/11 0.8830
53 Hope, Walter --- 26:15 34.286 53/69 OVAM 12/17 1.0211
54 Pope, Kenneth --- 26:41 33.729 54/69 OVAM 13/17  
55 Ajersch, Mary  OBC 26:56 33.416 55/69 OVBF 1/2 1.0840
56 Ford, John OBC 27:18 32.967 56/69 OVAM 14/17 0.9198
57 Smart, Eric OBC 27:20 32.927 57/69 OVCM 1/1  
58 Hurst, Ron OBC 27:39 32.550 58/69 OVBM 9/11 1.0091
59 Paitich, Daniel OBC 27:57 32.200 59/69 OVAM 15/17 1.1325
60 Kapinsky, Shelly OBC 28:14 31.877 60/69 OVBF 2/2  
61 Woods, Bob  OBC 28:25 31.672 62/69 OVAM 16/17 1.0556
62 Murray, Julie OBC 28:29 31.597 63/69 OSEF 2/3  
63 Caron, Vianney OBC 28:37 31.450 64/69 OVAM 17/17  
64 Fortey, Brian OBC 29:45 30.252 65/69 OJUM 3/3 0.9423
65 Winter, Michael OBC 29:51 30.151 66/69 OVBM 10/11 0.9123
66 Rochon, Francois OBC 30:14 29.768 67/69 OSEM 28/28 1.1673
67 Pstross, Nick OBC 30:35 29.428 68/69 OVBM 11/11 1.0066
68 Carson, Jane OBC 31:22 28.693 69/69 OSEF 3/3  
 
Average Speed of all of the above 68 finishes (1020km in 28:01:48):36.390
>>>Average of the Average Speeds for these 68 finishes36.723<<<
 

The number of data records shown above is 68
The server processing of your query took: 1 wallclock secs ( 0.10 usr + 0.00 sys = 0.10 CPU)

Thanks to our Helpers: Colin Kemball, Erika Revesz, Richard Hinz, Mar Roy, Prapti Jensen, Robert DeVidi.

     


Apr 9 (Good Friday) Apr 15 Apr 22 (cancelled) Apr 27 Apr 29
May 4 (10km)
  May 6  
May 11 May 11 (10km) May 13 (22km) May 16 (40km) May 18 May 18 (10km) May 20 May 25 May 25 (10km) May 27 (38km) May 30 (40km)
Jun 1 Jun 3 Jun 8 Jun 10 (22km) Jun 15 Jun 17 Jun 22 Jun 22 Jun 24 (38km) Jun 25 Jun 27 (40km/80km) Jun 29 Jun 29 Jun 30
Jul 6 Jul 6 Jul 8 Jul 13 Jul 13 Jul 15 (38km) Jul 20 Jul 20 Jul 22 Jul 25 (80km) Jul 27 Jul 29 (22km)
Aug 3 Aug 3 Aug 5 Aug 7 (38km) Aug 10 Aug 10 Aug 12 Aug 15 (40km/80km) Aug 17 Aug 19 Aug 21 (22km) Aug 24 Aug 24 Aug 26 Aug 29 (40km) Aug 31 (Invitational)
Sep 2 Sep 7 Sep 9 Sep 14 Sep 16 Sep 25 (40km)

OTT Rankings
Best       Best by category
WTT Rankings for OBC Members
5 Best 15km     5 Best 15km by category
OBC Member Best Three 15km Rankings
Overall     by category
OBC BAR Ranking
Overall     by category     Rider "Consistency-Graph"
ABC BAR Ranking
Overall     by category     Rider "Consistency-Graph"
Other years
TT Calculator All TT People All TT events
ABC Home VVV Home
CKAP GOLD MEDAL
Other Links

Please send your comments and suggestions to: Celia McInnis
Copyright © 1998-2011 Celia McInnis. All rights reserved. Links are welcomed.